createdAt,value
2018-07-24T00:00:51.881Z,9.68
2018-07-24T00:01:55.323Z,8.10
2018-07-24T00:02:58.707Z,9.40
2018-07-24T00:04:02.109Z,10.55
2018-07-24T00:05:06.386Z,10.58
2018-07-24T00:06:10.926Z,8.38
2018-07-24T00:07:14.352Z,8.38
2018-07-24T00:08:17.735Z,8.08
2018-07-24T00:09:21.143Z,9.98
2018-07-24T00:10:26.318Z,9.50
2018-07-24T00:11:30.083Z,11.57
2018-07-24T00:12:33.188Z,8.48
2018-07-24T00:13:36.559Z,9.05
2018-07-24T00:14:39.973Z,8.28
2018-07-24T00:15:44.438Z,9.20
2018-07-24T00:16:47.858Z,8.25
2018-07-24T00:17:51.235Z,8.25
2018-07-24T00:18:54.619Z,13.35
2018-07-24T00:19:58.023Z,10.53
2018-07-24T00:21:02.382Z,8.68
2018-07-24T00:22:05.813Z,9.93
2018-07-24T00:23:09.199Z,14.50
2018-07-24T00:24:12.581Z,11.27
2018-07-24T00:25:17.195Z,9.65
2018-07-24T00:26:21.641Z,9.43
2018-07-24T00:27:25.056Z,8.23
2018-07-24T00:28:28.154Z,13.28
2018-07-24T00:29:31.531Z,12.82
2018-07-24T00:30:36.349Z,15.55
2018-07-24T00:31:39.751Z,14.50
2018-07-24T00:32:43.139Z,11.30
2018-07-24T00:33:46.527Z,9.38
2018-07-24T00:34:49.896Z,9.58
2018-07-24T00:35:53.790Z,8.38
2018-07-24T00:36:57.211Z,10.75
2018-07-24T00:38:00.589Z,9.55
2018-07-24T00:39:05.915Z,8.93
2018-07-24T00:40:10.745Z,10.68
2018-07-24T00:41:15.218Z,9.55
2018-07-24T00:42:18.623Z,9.70
2018-07-24T00:43:22.007Z,10.55
2018-07-24T00:44:25.391Z,8.73
2018-07-24T00:45:29.887Z,18.65
2018-07-24T00:46:34.163Z,11.15
2018-07-24T00:47:37.565Z,9.10
2018-07-24T00:48:41.034Z,11.25
2018-07-24T00:49:44.420Z,10.55
2018-07-24T00:50:49.415Z,16.82
2018-07-24T00:51:52.843Z,13.85
2018-07-24T00:52:56.231Z,16.12
2018-07-24T00:53:59.611Z,13.43
2018-07-24T00:55:03.020Z,10.53
2018-07-24T00:56:07.497Z,12.00
2018-07-24T00:57:11.078Z,12.78
2018-07-24T00:58:14.576Z,10.65
2018-07-24T00:59:17.959Z,10.30
2018-07-24T01:00:22.396Z,9.83
2018-07-24T01:01:26.709Z,10.15
2018-07-24T01:02:30.132Z,10.23
2018-07-24T01:03:33.652Z,9.80
2018-07-24T01:04:37.031Z,15.30
2018-07-24T01:05:41.480Z,10.25
2018-07-24T01:06:44.871Z,10.78
2018-07-24T01:07:47.974Z,13.13
2018-07-24T01:08:51.359Z,10.78
2018-07-24T01:09:54.748Z,12.65
2018-07-24T01:10:59.335Z,11.73
2018-07-24T01:12:02.763Z,10.80
2018-07-24T01:13:06.259Z,10.85
2018-07-24T01:14:10.377Z,9.95
2018-07-24T01:15:14.702Z,10.40
2018-07-24T01:16:19.163Z,11.40
2018-07-24T01:17:22.555Z,10.40
2018-07-24T01:18:25.956Z,9.90
2018-07-24T01:19:29.335Z,10.40
2018-07-24T01:20:34.009Z,9.98
2018-07-24T01:21:37.425Z,10.58
2018-07-24T01:22:40.803Z,11.53
2018-07-24T01:23:44.209Z,10.38
2018-07-24T01:24:47.600Z,9.95
2018-07-24T01:25:52.021Z,11.12
2018-07-24T01:26:55.427Z,9.73
2018-07-24T01:27:59.019Z,9.38
2018-07-24T01:29:02.395Z,9.60
2018-07-24T01:30:06.823Z,9.28
2018-07-24T01:31:11.367Z,9.25
2018-07-24T01:32:14.901Z,8.73
2018-07-24T01:33:18.303Z,9.25
2018-07-24T01:34:21.703Z,9.80
2018-07-24T01:35:26.234Z,14.90
2018-07-24T01:36:29.971Z,9.55
2018-07-24T01:37:33.343Z,8.90
2018-07-24T01:38:36.751Z,9.40
2018-07-24T01:39:40.127Z,12.90
2018-07-24T01:40:44.890Z,8.78
2018-07-24T01:41:48.279Z,11.68
2018-07-24T01:42:51.354Z,8.85
2018-07-24T01:43:54.454Z,8.55
2018-07-24T01:44:57.847Z,9.95
2018-07-24T01:46:02.368Z,9.75
2018-07-24T01:47:05.775Z,9.10
2018-07-24T01:48:09.155Z,13.30
2018-07-24T01:49:12.567Z,10.88
2018-07-24T01:50:17.640Z,11.35
2018-07-24T01:51:22.709Z,9.18
2018-07-24T01:52:26.099Z,9.90
2018-07-24T01:53:29.475Z,9.78
2018-07-24T01:54:32.883Z,9.33
2018-07-24T01:55:37.499Z,10.72
2018-07-24T01:56:40.900Z,11.28
2018-07-24T01:57:43.986Z,11.78
2018-07-24T01:58:47.058Z,9.43
2018-07-24T01:59:50.467Z,9.08
2018-07-24T02:00:54.866Z,10.38
2018-07-24T02:01:58.260Z,8.85
2018-07-24T02:03:01.639Z,9.70
2018-07-24T02:04:05.019Z,9.33
2018-07-24T02:05:09.421Z,8.93
2018-07-24T02:06:14.000Z,8.88
2018-07-24T02:07:17.440Z,8.70
2018-07-24T02:08:20.823Z,10.70
2018-07-24T02:09:24.207Z,9.03
2018-07-24T02:10:28.029Z,9.05
2018-07-24T02:11:31.439Z,9.48
2018-07-24T02:12:34.827Z,9.85
2018-07-24T02:13:38.207Z,9.13
2018-07-24T02:14:41.595Z,9.95
2018-07-24T02:15:46.191Z,11.00
2018-07-24T02:16:49.603Z,8.78
2018-07-24T02:17:52.979Z,9.60
2018-07-24T02:18:56.363Z,11.50
2018-07-24T02:19:59.783Z,8.98
2018-07-24T02:21:04.279Z,9.35
2018-07-24T02:22:07.391Z,9.25
2018-07-24T02:23:10.639Z,9.13
2018-07-24T02:24:14.016Z,9.10
2018-07-24T02:25:18.863Z,9.25
2018-07-24T02:26:22.813Z,11.48
2018-07-24T02:27:26.187Z,9.43
2018-07-24T02:28:29.563Z,9.38
2018-07-24T02:29:32.947Z,10.43
2018-07-24T02:30:37.578Z,8.68
2018-07-24T02:31:41.074Z,9.58
2018-07-24T02:32:44.455Z,8.98
2018-07-24T02:33:47.842Z,8.65
2018-07-24T02:34:51.257Z,8.83
2018-07-24T02:35:55.632Z,10.00
2018-07-24T02:36:58.794Z,9.45
2018-07-24T02:38:01.880Z,10.18
2018-07-24T02:39:08.440Z,9.03
2018-07-24T02:40:12.949Z,8.60
2018-07-24T02:41:17.605Z,9.98
2018-07-24T02:42:21.035Z,8.90
2018-07-24T02:43:24.427Z,8.80
2018-07-24T02:44:27.803Z,8.83
2018-07-24T02:45:31.450Z,9.30
2018-07-24T02:46:34.857Z,10.35
2018-07-24T02:47:38.361Z,8.35
2018-07-24T02:48:41.735Z,8.98
2018-07-24T02:49:45.111Z,8.80
2018-07-24T02:50:49.426Z,9.65
2018-07-24T02:51:52.824Z,10.98
2018-07-24T02:52:56.219Z,9.48
2018-07-24T02:53:59.310Z,9.83
2018-07-24T02:55:02.442Z,8.85
2018-07-24T02:56:07.158Z,9.80
2018-07-24T02:57:10.294Z,12.05
2018-07-24T02:58:13.398Z,11.05
2018-07-24T02:59:16.781Z,9.63
2018-07-24T03:00:21.206Z,9.53
2018-07-24T03:01:26.037Z,10.72
2018-07-24T03:02:29.253Z,9.63
2018-07-24T03:03:32.643Z,9.40
2018-07-24T03:04:36.193Z,10.75
2018-07-24T03:05:40.836Z,9.98
2018-07-24T03:06:44.627Z,10.15
2018-07-24T03:07:48.003Z,9.88
2018-07-24T03:08:51.595Z,9.33
2018-07-24T03:09:54.980Z,10.78
2018-07-24T03:10:59.486Z,9.65
2018-07-24T03:12:03.073Z,13.22
2018-07-24T03:13:06.463Z,11.97
2018-07-24T03:14:09.855Z,9.60
2018-07-24T03:15:14.941Z,10.93
2018-07-24T03:16:20.082Z,10.20
2018-07-24T03:17:23.507Z,9.50
2018-07-24T03:18:26.967Z,11.33
2018-07-24T03:19:30.367Z,10.30
2018-07-24T03:20:34.878Z,9.88
2018-07-24T03:21:38.275Z,10.15
2018-07-24T03:22:41.669Z,11.05
2018-07-24T03:23:45.080Z,10.20
2018-07-24T03:24:48.480Z,9.83
2018-07-24T03:25:53.037Z,10.95
2018-07-24T03:26:56.460Z,10.03
2018-07-24T03:27:59.866Z,10.75
2018-07-24T03:29:03.258Z,10.23
2018-07-24T03:30:11.626Z,10.95
2018-07-24T03:31:16.312Z,9.75
2018-07-24T03:32:19.707Z,10.25
2018-07-24T03:33:23.091Z,10.23
2018-07-24T03:34:26.471Z,14.05
2018-07-24T03:35:30.847Z,9.60
2018-07-24T03:36:34.251Z,10.30
2018-07-24T03:37:37.627Z,11.48
2018-07-24T03:38:41.051Z,10.00
2018-07-24T03:39:44.521Z,9.40
2018-07-24T03:40:48.797Z,9.50
2018-07-24T03:41:52.184Z,8.85
2018-07-24T03:42:55.561Z,10.08
2018-07-24T03:43:58.951Z,9.43
2018-07-24T03:45:02.399Z,11.45
2018-07-24T03:46:06.986Z,9.58
2018-07-24T03:47:10.787Z,9.35
2018-07-24T03:48:14.171Z,10.70
2018-07-24T03:49:17.555Z,9.83
2018-07-24T03:50:21.992Z,9.13
2018-07-24T03:51:29.023Z,8.80
2018-07-24T03:52:32.399Z,10.72
2018-07-24T03:53:35.787Z,11.28
2018-07-24T03:54:39.232Z,11.55
2018-07-24T03:55:43.727Z,11.57
2018-07-24T03:56:47.195Z,9.20
2018-07-24T03:57:50.626Z,9.10
2018-07-24T03:58:53.971Z,9.13
2018-07-24T03:59:57.348Z,9.28
2018-07-24T04:01:01.870Z,9.48
2018-07-24T04:02:05.283Z,8.85
2018-07-24T04:03:08.655Z,9.43
2018-07-24T04:04:12.027Z,9.58
2018-07-24T04:05:16.499Z,9.18
2018-07-24T04:06:21.382Z,10.10
2018-07-24T04:07:24.836Z,9.33
2018-07-24T04:08:28.222Z,8.50
2018-07-24T04:09:31.600Z,9.48
2018-07-24T04:10:36.124Z,13.50
2018-07-24T04:11:39.423Z,8.50
2018-07-24T04:12:42.819Z,8.55
2018-07-24T04:13:45.887Z,8.65
2018-07-24T04:14:49.269Z,8.48
2018-07-24T04:15:53.677Z,9.25
2018-07-24T04:16:57.079Z,8.70
2018-07-24T04:18:00.178Z,8.43
2018-07-24T04:19:03.555Z,8.90
2018-07-24T04:20:08.040Z,8.70
2018-07-24T04:21:12.542Z,11.68
2018-07-24T04:22:15.944Z,9.03
2018-07-24T04:23:19.408Z,9.55
2018-07-24T04:24:22.799Z,9.20
2018-07-24T04:25:27.365Z,8.95
2018-07-24T04:26:30.804Z,8.80
2018-07-24T04:27:34.195Z,8.65
2018-07-24T04:28:37.628Z,11.15
2018-07-24T04:29:41.049Z,9.68
2018-07-24T04:30:45.858Z,11.15
2018-07-24T04:31:49.284Z,11.18
2018-07-24T04:32:52.659Z,11.70
2018-07-24T04:33:56.059Z,17.17
2018-07-24T04:34:59.444Z,13.18
2018-07-24T04:36:03.881Z,9.05
2018-07-24T04:37:07.286Z,9.20
2018-07-24T04:38:10.669Z,8.68
2018-07-24T04:39:14.119Z,9.55
2018-07-24T04:40:17.919Z,9.20
2018-07-24T04:41:22.368Z,7.75
2018-07-24T04:42:25.776Z,8.58
2018-07-24T04:43:29.191Z,11.12
2018-07-24T04:44:32.588Z,9.48
2018-07-24T04:45:37.369Z,8.78
2018-07-24T04:46:40.802Z,8.30
2018-07-24T04:47:44.344Z,8.10
2018-07-24T04:48:47.728Z,8.88
2018-07-24T04:49:51.135Z,8.78
2018-07-24T04:50:55.532Z,8.38
2018-07-24T04:51:58.638Z,9.00
2018-07-24T04:53:02.020Z,8.38
2018-07-24T04:54:05.528Z,9.10
2018-07-24T04:55:09.455Z,9.33
2018-07-24T04:56:14.002Z,8.03
2018-07-24T04:57:17.435Z,8.43
2018-07-24T04:58:20.807Z,9.05
2018-07-24T04:59:24.214Z,10.23
2018-07-24T05:00:28.761Z,8.90
2018-07-24T05:01:32.175Z,9.38
2018-07-24T05:02:35.555Z,9.73
2018-07-24T05:03:38.931Z,9.48
2018-07-24T05:04:42.343Z,8.30
2018-07-24T05:05:46.281Z,10.35
2018-07-24T05:06:49.731Z,11.60
2018-07-24T05:07:52.991Z,12.35
2018-07-24T05:08:56.360Z,9.50
2018-07-24T05:09:59.735Z,9.45
2018-07-24T05:11:04.356Z,8.63
2018-07-24T05:12:07.856Z,9.33
2018-07-24T05:13:11.250Z,11.83
2018-07-24T05:14:15.039Z,10.68
2018-07-24T05:15:19.622Z,9.28
2018-07-24T05:16:23.867Z,8.68
2018-07-24T05:17:27.309Z,10.43
2018-07-24T05:18:30.695Z,9.35
2018-07-24T05:19:36.950Z,11.30
2018-07-24T05:20:41.413Z,9.03
2018-07-24T05:21:44.546Z,10.08
2018-07-24T05:22:48.052Z,9.95
2018-07-24T05:23:51.447Z,9.80
2018-07-24T05:24:54.835Z,11.85
2018-07-24T05:25:59.379Z,10.28
2018-07-24T05:27:02.875Z,9.00
2018-07-24T05:28:05.946Z,9.20
2018-07-24T05:29:10.003Z,9.80
2018-07-24T05:30:14.538Z,8.73
2018-07-24T05:31:18.956Z,10.05
2018-07-24T05:32:22.078Z,9.30
2018-07-24T05:33:25.456Z,10.58
2018-07-24T05:34:28.835Z,12.03
2018-07-24T05:35:34.409Z,8.93
2018-07-24T05:36:37.827Z,10.88
2018-07-24T05:37:41.407Z,9.20
2018-07-24T05:38:44.851Z,14.28
2018-07-24T05:39:48.203Z,10.25
2018-07-24T05:40:52.653Z,9.28
2018-07-24T05:41:56.060Z,8.93
2018-07-24T05:42:59.463Z,11.88
2018-07-24T05:44:02.848Z,9.00
2018-07-24T05:45:08.217Z,8.73
2018-07-24T05:46:12.793Z,10.20
2018-07-24T05:47:16.207Z,9.48
2018-07-24T05:48:19.302Z,10.78
2018-07-24T05:49:22.403Z,10.88
2018-07-24T05:50:26.889Z,9.75
2018-07-24T05:51:30.371Z,9.55
2018-07-24T05:52:33.477Z,11.05
2018-07-24T05:53:36.868Z,9.93
2018-07-24T05:54:40.307Z,10.88
2018-07-24T05:55:44.780Z,14.03
2018-07-24T05:56:48.180Z,10.18
2018-07-24T05:57:51.959Z,9.00
2018-07-24T05:58:55.355Z,9.53
2018-07-24T05:59:58.735Z,10.08
2018-07-24T06:01:03.518Z,11.28
2018-07-24T06:02:06.928Z,9.63
2018-07-24T06:03:10.312Z,13.18
2018-07-24T06:04:13.732Z,10.28
2018-07-24T06:05:18.120Z,10.68
2018-07-24T06:06:22.587Z,9.75
2018-07-24T06:07:26.007Z,8.28
2018-07-24T06:08:29.400Z,9.83
2018-07-24T06:09:33.219Z,8.53
2018-07-24T06:10:37.649Z,10.30
2018-07-24T06:11:40.734Z,9.20
2018-07-24T06:12:43.806Z,9.38
2018-07-24T06:13:47.183Z,9.43
2018-07-24T06:14:50.575Z,10.55
2018-07-24T06:15:55.025Z,10.43
2018-07-24T06:16:58.439Z,12.10
2018-07-24T06:18:01.819Z,9.60
2018-07-24T06:19:05.215Z,11.15
2018-07-24T06:20:10.934Z,8.25
2018-07-24T06:21:15.446Z,8.45
2018-07-24T06:22:18.848Z,10.45
2018-07-24T06:23:22.238Z,11.15
2018-07-24T06:24:25.731Z,8.75
2018-07-24T06:25:30.197Z,7.47
2018-07-24T06:26:35.074Z,7.83
2018-07-24T06:27:38.447Z,8.28
2018-07-24T06:28:41.823Z,6.45
2018-07-24T06:29:45.423Z,9.15
2018-07-24T06:30:49.849Z,10.28
2018-07-24T06:31:52.955Z,7.78
2018-07-24T06:32:56.031Z,7.12
2018-07-24T06:33:59.111Z,7.00
2018-07-24T06:35:02.282Z,10.05
2018-07-24T06:36:07.538Z,7.45
2018-07-24T06:37:10.952Z,8.33
2018-07-24T06:38:14.515Z,6.58
2018-07-24T06:39:17.895Z,9.78
2018-07-24T06:40:22.347Z,7.30
2018-07-24T06:41:26.689Z,7.72
2018-07-24T06:42:30.092Z,6.33
2018-07-24T06:43:33.499Z,6.90
2018-07-24T06:44:36.962Z,7.22
2018-07-24T06:45:41.401Z,6.12
2018-07-24T06:46:44.799Z,7.35
2018-07-24T06:47:48.171Z,6.00
2018-07-24T06:48:51.547Z,6.55
2018-07-24T06:49:54.926Z,8.03
2018-07-24T06:50:58.779Z,6.75
2018-07-24T06:52:02.239Z,6.85
2018-07-24T06:53:05.580Z,6.15
2018-07-24T06:54:08.654Z,6.50
2018-07-24T06:55:12.959Z,6.55
2018-07-24T06:56:17.472Z,7.22
2018-07-24T06:57:20.874Z,8.70
2018-07-24T06:58:23.963Z,7.47
2018-07-24T06:59:27.343Z,6.58
2018-07-24T07:00:31.189Z,9.88
2018-07-24T07:01:34.615Z,6.03
2018-07-24T07:02:37.999Z,10.20
2018-07-24T07:03:41.074Z,7.97
2018-07-24T07:04:44.470Z,8.35
2018-07-24T07:05:48.939Z,5.90
2018-07-24T07:06:52.361Z,6.03
2018-07-24T07:07:55.435Z,8.13
2018-07-24T07:09:04.439Z,6.28
2018-07-24T07:10:08.030Z,6.75
2018-07-24T07:11:12.732Z,6.30
2018-07-24T07:12:16.175Z,8.58
2018-07-24T07:13:19.582Z,6.37
2018-07-24T07:14:22.990Z,5.92
2018-07-24T07:15:27.286Z,6.53
2018-07-24T07:16:31.705Z,8.73
2018-07-24T07:17:35.119Z,7.62
2018-07-24T07:18:38.511Z,6.87
2018-07-24T07:19:41.899Z,6.67
2018-07-24T07:20:45.723Z,5.97
2018-07-24T07:21:49.128Z,6.20
2018-07-24T07:22:52.521Z,7.95
2018-07-24T07:23:55.904Z,7.55
2018-07-24T07:24:59.291Z,10.23
2018-07-24T07:26:04.024Z,7.05
2018-07-24T07:27:07.325Z,8.80
2018-07-24T07:28:10.751Z,6.25
2018-07-24T07:29:14.159Z,6.10
2018-07-24T07:30:18.617Z,5.17
2018-07-24T07:31:23.286Z,6.03
2018-07-24T07:32:26.710Z,6.25
2018-07-24T07:33:30.109Z,6.03
2018-07-24T07:34:33.202Z,5.95
2018-07-24T07:35:37.208Z,7.70
2018-07-24T07:36:40.675Z,5.87
2018-07-24T07:37:44.043Z,8.03
2018-07-24T07:38:47.439Z,5.83
2018-07-24T07:39:50.815Z,5.60
2018-07-24T07:40:56.397Z,5.85
2018-07-24T07:41:59.839Z,5.87
2018-07-24T07:43:03.240Z,7.12
2018-07-24T07:44:06.648Z,7.22
2018-07-24T07:45:10.577Z,5.30
2018-07-24T07:46:15.750Z,5.30
2018-07-24T07:47:19.156Z,10.15
2018-07-24T07:48:22.255Z,5.83
2018-07-24T07:49:25.663Z,6.83
2018-07-24T07:50:30.117Z,7.10
2018-07-24T07:51:33.607Z,6.70
2018-07-24T07:52:37.025Z,6.28
2018-07-24T07:53:40.327Z,7.15
2018-07-24T07:54:43.723Z,7.60
2018-07-24T07:55:48.302Z,5.70
2018-07-24T07:56:51.711Z,5.20
2018-07-24T07:57:55.167Z,5.60
2018-07-24T07:58:58.555Z,6.40
2018-07-24T08:00:01.666Z,5.47
2018-07-24T08:01:06.436Z,4.92
2018-07-24T08:02:09.975Z,4.60
2018-07-24T08:03:13.359Z,5.17
2018-07-24T08:04:16.940Z,6.53
2018-07-24T08:05:21.253Z,8.65
2018-07-24T08:06:25.703Z,5.25
2018-07-24T08:07:28.806Z,5.60
2018-07-24T08:08:32.183Z,4.55
2018-07-24T08:09:35.558Z,5.22
2018-07-24T08:10:41.086Z,4.95
2018-07-24T08:11:44.191Z,8.93
2018-07-24T08:12:47.567Z,6.40
2018-07-24T08:13:50.956Z,6.92
2018-07-24T08:14:54.035Z,5.92
2018-07-24T08:15:58.031Z,6.12
2018-07-24T08:17:01.119Z,4.90
2018-07-24T08:18:04.194Z,7.03
2018-07-24T08:19:07.270Z,5.95
2018-07-24T08:20:11.164Z,4.33
2018-07-24T08:21:16.323Z,6.08
2018-07-24T08:22:19.783Z,4.75
2018-07-24T08:23:23.126Z,4.67
2018-07-24T08:24:26.823Z,11.00
2018-07-24T08:25:31.214Z,4.78
2018-07-24T08:26:34.632Z,5.12
2018-07-24T08:27:38.055Z,5.78
2018-07-24T08:28:41.440Z,4.25
2018-07-24T08:29:44.617Z,4.58
2018-07-24T08:30:49.007Z,7.47
2018-07-24T08:31:52.206Z,4.87
2018-07-24T08:32:55.587Z,7.80
2018-07-24T08:33:58.662Z,4.78
2018-07-24T08:35:02.064Z,6.30
2018-07-24T08:36:06.554Z,4.60
2018-07-24T08:37:09.655Z,4.00
2018-07-24T08:38:12.730Z,4.50
2018-07-24T08:39:16.111Z,3.67
2018-07-24T08:40:20.872Z,3.55
2018-07-24T08:41:26.245Z,4.87
2018-07-24T08:42:29.450Z,6.70
2018-07-24T08:43:32.867Z,4.37
2018-07-24T08:44:36.249Z,6.65
2018-07-24T08:45:40.702Z,7.42
2018-07-24T08:46:44.127Z,3.37
2018-07-24T08:47:47.528Z,4.08
2018-07-24T08:48:50.931Z,4.67
2018-07-24T08:49:54.304Z,6.10
2018-07-24T08:50:58.782Z,5.03
2018-07-24T08:52:02.191Z,4.58
2018-07-24T08:53:05.820Z,6.37
2018-07-24T08:54:09.208Z,5.22
2018-07-24T08:55:13.814Z,4.17
2018-07-24T08:56:17.654Z,4.90
2018-07-24T08:57:21.123Z,8.70
2018-07-24T08:58:24.527Z,8.88
2018-07-24T08:59:27.638Z,5.05
2018-07-24T09:00:32.122Z,4.97
2018-07-24T09:01:35.544Z,4.17
2018-07-24T09:02:38.935Z,5.70
2018-07-24T09:03:42.381Z,4.17
2018-07-24T09:04:45.456Z,4.40
2018-07-24T09:05:49.294Z,7.03
2018-07-24T09:06:52.691Z,7.83
2018-07-24T09:07:56.091Z,3.83
2018-07-24T09:08:59.496Z,8.20
2018-07-24T09:10:03.394Z,3.95
2018-07-24T09:11:07.916Z,6.70
2018-07-24T09:12:11.319Z,4.17
2018-07-24T09:13:14.741Z,4.80
2018-07-24T09:14:18.135Z,4.42
2018-07-24T09:15:22.535Z,6.30
2018-07-24T09:16:26.985Z,3.70
2018-07-24T09:17:30.074Z,4.78
2018-07-24T09:18:33.455Z,5.95
2018-07-24T09:19:36.849Z,4.67
2018-07-24T09:20:40.731Z,4.20
2018-07-24T09:21:44.019Z,3.67
2018-07-24T09:22:47.415Z,4.87
2018-07-24T09:23:50.795Z,3.45
2018-07-24T09:24:54.267Z,3.65
2018-07-24T09:25:58.979Z,3.47
2018-07-24T09:27:02.395Z,4.87
2018-07-24T09:28:06.056Z,4.13
2018-07-24T09:29:09.439Z,4.33
2018-07-24T09:30:14.636Z,5.03
2018-07-24T09:31:19.031Z,4.10
2018-07-24T09:32:22.427Z,5.45
2018-07-24T09:33:25.799Z,7.35
2018-07-24T09:34:29.183Z,4.78
2018-07-24T09:35:33.105Z,3.47
2018-07-24T09:36:36.559Z,3.98
2018-07-24T09:37:39.638Z,4.33
2018-07-24T09:38:43.035Z,7.97
2018-07-24T09:39:46.428Z,3.52
2018-07-24T09:40:51.061Z,5.95
2018-07-24T09:41:54.505Z,3.90
2018-07-24T09:42:57.579Z,5.25
2018-07-24T09:44:00.951Z,4.40
2018-07-24T09:45:05.322Z,3.30
2018-07-24T09:46:09.761Z,4.30
2018-07-24T09:47:13.190Z,3.23
2018-07-24T09:48:16.279Z,4.17
2018-07-24T09:49:19.692Z,3.83
2018-07-24T09:50:24.317Z,4.33
2018-07-24T09:51:29.339Z,4.55
2018-07-24T09:52:32.728Z,3.75
2018-07-24T09:53:36.103Z,4.47
2018-07-24T09:54:39.519Z,3.70
2018-07-24T09:55:43.944Z,3.83
2018-07-24T09:56:47.071Z,5.37
2018-07-24T09:57:50.547Z,3.80
2018-07-24T09:58:53.927Z,3.57
2018-07-24T09:59:57.303Z,3.87
2018-07-24T10:01:08.369Z,5.53
2018-07-24T10:02:11.792Z,4.25
2018-07-24T10:03:15.179Z,3.92
2018-07-24T10:04:18.557Z,3.55
2018-07-24T10:05:23.618Z,3.83
2018-07-24T10:06:28.120Z,4.05
2018-07-24T10:07:31.524Z,3.90
2018-07-24T10:08:34.983Z,3.98
2018-07-24T10:09:38.359Z,5.40
2018-07-24T10:10:42.896Z,6.23
2018-07-24T10:11:46.300Z,4.00
2018-07-24T10:12:49.768Z,3.77
2018-07-24T10:13:53.079Z,4.33
2018-07-24T10:14:56.154Z,4.20
2018-07-24T10:16:00.829Z,5.37
2018-07-24T10:17:04.261Z,3.67
2018-07-24T10:18:07.643Z,4.53
2018-07-24T10:19:10.723Z,4.20
2018-07-24T10:20:15.504Z,5.50
2018-07-24T10:21:19.911Z,3.27
2018-07-24T10:22:23.361Z,4.30
2018-07-24T10:23:26.766Z,4.67
2018-07-24T10:24:30.439Z,3.60
2018-07-24T10:25:34.812Z,3.90
2018-07-24T10:26:38.219Z,3.80
2018-07-24T10:27:41.627Z,3.87
2018-07-24T10:28:45.168Z,3.87
2018-07-24T10:29:48.559Z,3.62
2018-07-24T10:30:53.837Z,4.27
2018-07-24T10:31:57.230Z,4.35
2018-07-24T10:33:00.655Z,3.33
2018-07-24T10:34:04.031Z,5.37
2018-07-24T10:35:09.304Z,3.97
2018-07-24T10:36:14.013Z,5.97
2018-07-24T10:37:17.419Z,6.45
2018-07-24T10:38:20.807Z,4.10
2018-07-24T10:39:24.179Z,3.70
2018-07-24T10:40:28.817Z,3.77
2018-07-24T10:41:32.211Z,3.37
2018-07-24T10:42:35.603Z,3.50
2018-07-24T10:43:39.011Z,3.27
2018-07-24T10:44:42.423Z,4.40
2018-07-24T10:45:46.831Z,5.05
2018-07-24T10:46:49.926Z,3.87
2018-07-24T10:47:53.006Z,3.40
2018-07-24T10:48:56.100Z,4.15
2018-07-24T10:49:59.480Z,3.63
2018-07-24T10:51:03.861Z,3.20
2018-07-24T10:52:07.313Z,4.17
2018-07-24T10:53:10.819Z,3.08
2018-07-24T10:54:14.211Z,3.07
2018-07-24T10:55:19.101Z,2.73
2018-07-24T10:56:23.355Z,4.03
2018-07-24T10:57:26.764Z,2.63
2018-07-24T10:58:30.147Z,5.37
2018-07-24T10:59:33.515Z,3.57
2018-07-24T11:00:38.863Z,3.00
2018-07-24T11:01:42.256Z,3.30
2018-07-24T11:02:45.644Z,3.33
2018-07-24T11:03:49.395Z,3.53
2018-07-24T11:04:52.779Z,3.60
2018-07-24T11:05:57.136Z,3.10
2018-07-24T11:07:00.522Z,3.40
2018-07-24T11:08:03.943Z,3.57
2018-07-24T11:09:08.416Z,3.63
2018-07-24T11:10:13.332Z,6.80
2018-07-24T11:11:17.848Z,3.37
2018-07-24T11:12:21.268Z,3.33
2018-07-24T11:13:24.689Z,5.70
2018-07-24T11:14:28.096Z,4.47
2018-07-24T11:15:32.600Z,4.57
2018-07-24T11:16:36.066Z,10.03
2018-07-24T11:17:39.393Z,4.07
2018-07-24T11:18:42.783Z,3.57
2018-07-24T11:19:46.147Z,3.50
2018-07-24T11:20:57.162Z,3.93
2018-07-24T11:22:00.723Z,4.10
2018-07-24T11:23:04.065Z,3.37
2018-07-24T11:24:07.435Z,8.63
2018-07-24T11:25:11.764Z,6.05
2018-07-24T11:26:15.607Z,8.70
2018-07-24T11:27:19.077Z,4.27
2018-07-24T11:28:22.473Z,4.77
2018-07-24T11:29:25.799Z,3.87
2018-07-24T11:30:30.359Z,3.83
2018-07-24T11:31:33.743Z,3.43
2018-07-24T11:32:36.818Z,5.77
2018-07-24T11:33:39.908Z,10.80
2018-07-24T11:34:43.321Z,7.97
2018-07-24T11:35:47.932Z,3.50
2018-07-24T11:36:51.315Z,3.77
2018-07-24T11:37:54.694Z,6.23
2018-07-24T11:38:58.080Z,4.20
2018-07-24T11:40:01.444Z,7.97
2018-07-24T11:41:06.063Z,5.23
2018-07-24T11:42:09.653Z,4.00
2018-07-24T11:43:13.033Z,5.90
2018-07-24T11:44:16.442Z,14.50
2018-07-24T11:45:20.911Z,5.63
2018-07-24T11:46:24.730Z,5.87
2018-07-24T11:47:27.807Z,25.00
2018-07-24T11:48:30.926Z,61.07
2018-07-24T11:49:34.305Z,23.30
2018-07-24T11:50:38.837Z,10.17
2018-07-24T11:51:42.327Z,6.50
2018-07-24T11:52:45.636Z,3.87
2018-07-24T11:53:49.027Z,17.30
2018-07-24T11:54:52.391Z,4.93
2018-07-24T11:55:56.820Z,3.20
2018-07-24T11:56:59.902Z,3.47
2018-07-24T11:58:03.284Z,4.13
2018-07-24T11:59:06.682Z,3.87
2018-07-24T12:00:11.651Z,3.33
2018-07-24T12:01:16.417Z,5.07
2018-07-24T12:02:19.824Z,4.33
2018-07-24T12:03:23.211Z,3.80
2018-07-24T12:04:26.595Z,3.67
2018-07-24T12:05:31.059Z,4.17
2018-07-24T12:06:34.452Z,3.73
2018-07-24T12:07:37.824Z,3.50
2018-07-24T12:08:41.210Z,4.27
2018-07-24T12:09:44.583Z,3.60
2018-07-24T12:10:49.151Z,3.60
2018-07-24T12:11:52.539Z,3.77
2018-07-24T12:12:55.912Z,3.80
2018-07-24T12:13:59.299Z,3.87
2018-07-24T12:15:02.838Z,3.97
2018-07-24T12:16:08.423Z,3.90
2018-07-24T12:17:11.511Z,4.80
2018-07-24T12:18:14.587Z,3.90
2018-07-24T12:19:18.007Z,3.40
2018-07-24T12:20:22.502Z,4.77
2018-07-24T12:21:26.918Z,3.90
2018-07-24T12:22:30.323Z,3.73
2018-07-24T12:23:33.700Z,7.87
2018-07-24T12:24:37.135Z,4.10
2018-07-24T12:25:41.548Z,8.50
2018-07-24T12:26:44.947Z,4.57
2018-07-24T12:27:48.323Z,4.13
2018-07-24T12:28:51.712Z,3.40
2018-07-24T12:29:55.091Z,3.50
2018-07-24T12:30:59.572Z,4.97
2018-07-24T12:32:02.996Z,4.60
2018-07-24T12:33:06.383Z,7.13
2018-07-24T12:34:10.058Z,4.00
2018-07-24T12:35:14.494Z,5.27
2018-07-24T12:36:19.101Z,3.77
2018-07-24T12:37:22.531Z,3.63
2018-07-24T12:38:25.936Z,3.87
2018-07-24T12:39:29.323Z,4.40
2018-07-24T12:40:33.679Z,4.93
2018-07-24T12:41:37.076Z,3.77
2018-07-24T12:42:40.447Z,3.67
2018-07-24T12:43:43.870Z,3.80
2018-07-24T12:44:47.248Z,5.93
2018-07-24T12:45:51.640Z,4.20
2018-07-24T12:46:55.055Z,4.10
2018-07-24T12:47:58.420Z,6.27
2018-07-24T12:49:01.795Z,4.93
2018-07-24T12:50:06.166Z,3.87
2018-07-24T12:51:10.581Z,3.67
2018-07-24T12:52:13.959Z,3.73
2018-07-24T12:53:17.350Z,3.80
2018-07-24T12:54:20.736Z,3.50
2018-07-24T12:55:25.075Z,4.70
2018-07-24T12:56:29.143Z,3.87
2018-07-24T12:57:32.559Z,3.93
2018-07-24T12:58:35.935Z,4.50
2018-07-24T12:59:39.351Z,5.53
2018-07-24T13:00:44.062Z,3.90
2018-07-24T13:01:47.480Z,3.83
2018-07-24T13:02:50.847Z,3.77
2018-07-24T13:03:54.244Z,4.83
2018-07-24T13:04:58.171Z,3.90
2018-07-24T13:06:02.569Z,7.37
2018-07-24T13:07:06.028Z,6.47
2018-07-24T13:08:09.419Z,4.13
2018-07-24T13:09:12.927Z,4.50
2018-07-24T13:10:17.595Z,7.07
2018-07-24T13:11:22.819Z,4.47
2018-07-24T13:12:26.187Z,4.40
2018-07-24T13:13:29.579Z,4.33
2018-07-24T13:14:32.966Z,5.07
2018-07-24T13:15:37.409Z,5.63
2018-07-24T13:16:40.834Z,4.90
2018-07-24T13:17:44.207Z,4.07
2018-07-24T13:18:47.577Z,8.03
2018-07-24T13:19:50.967Z,4.53
2018-07-24T13:20:55.314Z,4.30
2018-07-24T13:21:58.711Z,3.80
2018-07-24T13:23:02.083Z,4.57
2018-07-24T13:24:05.547Z,4.40
2018-07-24T13:25:10.457Z,4.10
2018-07-24T13:26:14.823Z,7.33
2018-07-24T13:27:18.223Z,4.40
2018-07-24T13:28:21.286Z,6.40
2018-07-24T13:29:24.650Z,4.30
2018-07-24T13:30:30.082Z,4.23
2018-07-24T13:31:33.467Z,4.37
2018-07-24T13:32:37.139Z,3.60
2018-07-24T13:33:40.511Z,3.90
2018-07-24T13:34:43.903Z,6.60
2018-07-24T13:35:48.208Z,3.80
2018-07-24T13:36:51.599Z,3.63
2018-07-24T13:37:54.968Z,3.87
2018-07-24T13:38:58.352Z,4.13
2018-07-24T13:40:01.884Z,3.60
2018-07-24T13:41:06.799Z,3.97
2018-07-24T13:42:10.195Z,4.83
2018-07-24T13:43:13.571Z,3.57
2018-07-24T13:44:16.963Z,4.07
2018-07-24T13:45:21.589Z,4.03
2018-07-24T13:46:26.096Z,5.07
2018-07-24T13:47:29.475Z,3.73
2018-07-24T13:48:32.841Z,4.00
2018-07-24T13:49:36.232Z,4.90
2018-07-24T13:50:41.772Z,3.67
2018-07-24T13:51:45.163Z,4.03
2018-07-24T13:52:48.538Z,4.07
2018-07-24T13:53:51.908Z,4.23
2018-07-24T13:54:55.330Z,4.60
2018-07-24T13:55:59.751Z,6.73
2018-07-24T13:57:02.854Z,6.07
2018-07-24T13:58:06.405Z,3.90
2018-07-24T13:59:09.774Z,7.20
2018-07-24T14:00:15.084Z,5.67
2018-07-24T14:01:19.571Z,5.03
2018-07-24T14:02:22.976Z,4.47
2018-07-24T14:03:26.347Z,5.07